sensor_id;sensor_type;location;lat;lon;timestamp;P1;durP1;ratioP1;P2;durP2;ratioP2
39094;SDS011;24840;47.508;19.376;2022-11-20T00:01:08;21.13;;;14.57;;
39094;SDS011;24840;47.508;19.376;2022-11-20T00:03:36;22.13;;;14.33;;
39094;SDS011;24840;47.508;19.376;2022-11-20T00:06:03;26.57;;;16.77;;
39094;SDS011;24840;47.508;19.376;2022-11-20T00:08:30;23.83;;;15.67;;
39094;SDS011;24840;47.508;19.376;2022-11-20T00:10:57;22.10;;;15.50;;
39094;SDS011;24840;47.508;19.376;2022-11-20T00:13:22;24.57;;;15.30;;
39094;SDS011;24840;47.508;19.376;2022-11-20T00:15:48;24.17;;;16.80;;
39094;SDS011;24840;47.508;19.376;2022-11-20T00:18:21;23.77;;;16.20;;
39094;SDS011;24840;47.508;19.376;2022-11-20T00:20:47;26.83;;;17.60;;
39094;SDS011;24840;47.508;19.376;2022-11-20T00:23:13;23.90;;;15.93;;
39094;SDS011;24840;47.508;19.376;2022-11-20T00:25:39;22.77;;;16.20;;
39094;SDS011;24840;47.508;19.376;2022-11-20T00:28:05;28.60;;;17.17;;
39094;SDS011;24840;47.508;19.376;2022-11-20T00:30:31;24.37;;;15.23;;
39094;SDS011;24840;47.508;19.376;2022-11-20T00:32:57;23.43;;;16.03;;
39094;SDS011;24840;47.508;19.376;2022-11-20T00:35:23;25.40;;;16.43;;
39094;SDS011;24840;47.508;19.376;2022-11-20T00:37:49;21.07;;;15.37;;
39094;SDS011;24840;47.508;19.376;2022-11-20T00:40:15;23.20;;;15.50;;
39094;SDS011;24840;47.508;19.376;2022-11-20T00:42:41;27.90;;;16.70;;
39094;SDS011;24840;47.508;19.376;2022-11-20T00:45:07;23.50;;;15.03;;
39094;SDS011;24840;47.508;19.376;2022-11-20T00:47:33;26.97;;;16.73;;
39094;SDS011;24840;47.508;19.376;2022-11-20T00:49:59;22.90;;;17.47;;
39094;SDS011;24840;47.508;19.376;2022-11-20T00:52:25;27.03;;;16.60;;
39094;SDS011;24840;47.508;19.376;2022-11-20T00:54:52;22.47;;;16.20;;
39094;SDS011;24840;47.508;19.376;2022-11-20T00:57:18;29.77;;;17.23;;
39094;SDS011;24840;47.508;19.376;2022-11-20T00:59:44;23.53;;;16.53;;
39094;SDS011;24840;47.508;19.376;2022-11-20T01:02:10;29.07;;;16.23;;
39094;SDS011;24840;47.508;19.376;2022-11-20T01:04:36;25.93;;;17.10;;
39094;SDS011;24840;47.508;19.376;2022-11-20T01:07:02;25.07;;;16.97;;
39094;SDS011;24840;47.508;19.376;2022-11-20T01:09:28;146.93;;;24.00;;
39094;SDS011;24840;47.508;19.376;2022-11-20T01:11:55;26.73;;;15.47;;
39094;SDS011;24840;47.508;19.376;2022-11-20T01:14:21;28.83;;;17.27;;
39094;SDS011;24840;47.508;19.376;2022-11-20T01:16:48;25.17;;;16.43;;
39094;SDS011;24840;47.508;19.376;2022-11-20T01:19:16;29.93;;;20.00;;
39094;SDS011;24840;47.508;19.376;2022-11-20T01:21:45;25.67;;;16.87;;
39094;SDS011;24840;47.508;19.376;2022-11-20T01:24:13;27.67;;;18.40;;
39094;SDS011;24840;47.508;19.376;2022-11-20T01:26:41;27.73;;;17.53;;
39094;SDS011;24840;47.508;19.376;2022-11-20T01:29:12;25.73;;;17.10;;
39094;SDS011;24840;47.508;19.376;2022-11-20T01:31:47;25.37;;;16.37;;
39094;SDS011;24840;47.508;19.376;2022-11-20T01:34:22;25.43;;;18.33;;
39094;SDS011;24840;47.508;19.376;2022-11-20T01:36:53;28.50;;;17.77;;
39094;SDS011;24840;47.508;19.376;2022-11-20T01:39:25;24.98;;;17.48;;
39094;SDS011;24840;47.508;19.376;2022-11-20T01:42:00;27.30;;;17.80;;
39094;SDS011;24840;47.508;19.376;2022-11-20T01:48:11;33.07;;;20.90;;
39094;SDS011;24840;47.508;19.376;2022-11-20T01:50:48;27.90;;;18.70;;
39094;SDS011;24840;47.508;19.376;2022-11-20T01:53:20;31.37;;;20.53;;
39094;SDS011;24840;47.508;19.376;2022-11-20T01:55:53;33.40;;;20.00;;
39094;SDS011;24840;47.508;19.376;2022-11-20T01:58:26;32.17;;;21.30;;
39094;SDS011;24840;47.508;19.376;2022-11-20T02:00:55;33.80;;;20.60;;
39094;SDS011;24840;47.508;19.376;2022-11-20T02:03:21;34.20;;;21.23;;
39094;SDS011;24840;47.508;19.376;2022-11-20T02:05:52;34.53;;;20.67;;
39094;SDS011;24840;47.508;19.376;2022-11-20T02:08:35;30.47;;;20.53;;
39094;SDS011;24840;47.508;19.376;2022-11-20T02:11:03;35.40;;;21.60;;
39094;SDS011;24840;47.508;19.376;2022-11-20T02:13:29;36.43;;;21.87;;
39094;SDS011;24840;47.508;19.376;2022-11-20T02:16:12;35.47;;;19.97;;
39094;SDS011;24840;47.508;19.376;2022-11-20T02:18:46;36.20;;;22.13;;
39094;SDS011;24840;47.508;19.376;2022-11-20T02:21:36;41.63;;;23.07;;
39094;SDS011;24840;47.508;19.376;2022-11-20T02:26:48;37.43;;;22.73;;
39094;SDS011;24840;47.508;19.376;2022-11-20T02:29:26;37.27;;;24.27;;
39094;SDS011;24840;47.508;19.376;2022-11-20T02:32:23;33.83;;;21.73;;
39094;SDS011;24840;47.508;19.376;2022-11-20T02:34:52;34.53;;;21.58;;
39094;SDS011;24840;47.508;19.376;2022-11-20T02:37:18;40.40;;;23.73;;
39094;SDS011;24840;47.508;19.376;2022-11-20T02:39:46;38.10;;;23.93;;
39094;SDS011;24840;47.508;19.376;2022-11-20T02:42:15;35.17;;;22.17;;
39094;SDS011;24840;47.508;19.376;2022-11-20T02:44:41;35.90;;;23.00;;
39094;SDS011;24840;47.508;19.376;2022-11-20T02:47:07;39.97;;;24.67;;
39094;SDS011;24840;47.508;19.376;2022-11-20T02:49:33;37.60;;;24.73;;
39094;SDS011;24840;47.508;19.376;2022-11-20T02:51:59;38.20;;;24.90;;
39094;SDS011;24840;47.508;19.376;2022-11-20T02:54:25;34.17;;;22.57;;
39094;SDS011;24840;47.508;19.376;2022-11-20T02:56:51;36.57;;;23.07;;
39094;SDS011;24840;47.508;19.376;2022-11-20T02:59:17;31.90;;;20.87;;
39094;SDS011;24840;47.508;19.376;2022-11-20T03:01:43;34.93;;;23.00;;
39094;SDS011;24840;47.508;19.376;2022-11-20T03:04:09;34.17;;;21.00;;
39094;SDS011;24840;47.508;19.376;2022-11-20T03:06:35;35.53;;;22.23;;
39094;SDS011;24840;47.508;19.376;2022-11-20T03:09:01;38.37;;;22.77;;
39094;SDS011;24840;47.508;19.376;2022-11-20T03:11:28;34.30;;;21.30;;
39094;SDS011;24840;47.508;19.376;2022-11-20T03:13:54;36.50;;;21.43;;
39094;SDS011;24840;47.508;19.376;2022-11-20T03:16:21;34.70;;;21.40;;
39094;SDS011;24840;47.508;19.376;2022-11-20T03:18:47;33.80;;;22.37;;
39094;SDS011;24840;47.508;19.376;2022-11-20T03:21:15;35.53;;;22.47;;
39094;SDS011;24840;47.508;19.376;2022-11-20T03:23:41;44.63;;;24.40;;
39094;SDS011;24840;47.508;19.376;2022-11-20T03:26:14;35.73;;;21.93;;
39094;SDS011;24840;47.508;19.376;2022-11-20T03:28:50;33.33;;;21.47;;
39094;SDS011;24840;47.508;19.376;2022-11-20T03:31:20;35.57;;;22.37;;
39094;SDS011;24840;47.508;19.376;2022-11-20T03:33:59;31.80;;;21.17;;
39094;SDS011;24840;47.508;19.376;2022-11-20T03:36:31;32.27;;;20.20;;
39094;SDS011;24840;47.508;19.376;2022-11-20T03:39:08;36.05;;;21.70;;
39094;SDS011;24840;47.508;19.376;2022-11-20T03:41:50;32.83;;;21.20;;
39094;SDS011;24840;47.508;19.376;2022-11-20T03:44:20;33.73;;;22.43;;
39094;SDS011;24840;47.508;19.376;2022-11-20T03:46:46;33.03;;;20.27;;
39094;SDS011;24840;47.508;19.376;2022-11-20T03:49:14;29.90;;;20.00;;
39094;SDS011;24840;47.508;19.376;2022-11-20T03:51:50;35.53;;;22.43;;
39094;SDS011;24840;47.508;19.376;2022-11-20T03:54:21;34.27;;;22.13;;
39094;SDS011;24840;47.508;19.376;2022-11-20T03:56:52;36.95;;;22.48;;
39094;SDS011;24840;47.508;19.376;2022-11-20T03:59:24;30.93;;;21.23;;
39094;SDS011;24840;47.508;19.376;2022-11-20T04:01:56;31.23;;;20.50;;
39094;SDS011;24840;47.508;19.376;2022-11-20T04:04:27;35.27;;;22.33;;
39094;SDS011;24840;47.508;19.376;2022-11-20T04:06:57;35.73;;;22.63;;
39094;SDS011;24840;47.508;19.376;2022-11-20T04:09:26;32.13;;;21.17;;
39094;SDS011;24840;47.508;19.376;2022-11-20T04:11:52;33.23;;;22.57;;
39094;SDS011;24840;47.508;19.376;2022-11-20T04:14:18;37.53;;;24.30;;
39094;SDS011;24840;47.508;19.376;2022-11-20T04:16:44;33.80;;;23.47;;
39094;SDS011;24840;47.508;19.376;2022-11-20T04:19:11;33.50;;;21.50;;
39094;SDS011;24840;47.508;19.376;2022-11-20T04:21:39;33.00;;;22.80;;
39094;SDS011;24840;47.508;19.376;2022-11-20T04:24:06;32.80;;;21.67;;
39094;SDS011;24840;47.508;19.376;2022-11-20T04:26:32;31.23;;;20.60;;
39094;SDS011;24840;47.508;19.376;2022-11-20T04:28:59;30.63;;;20.17;;
39094;SDS011;24840;47.508;19.376;2022-11-20T04:31:31;31.87;;;21.23;;
39094;SDS011;24840;47.508;19.376;2022-11-20T04:34:01;34.97;;;22.40;;
39094;SDS011;24840;47.508;19.376;2022-11-20T04:36:29;36.97;;;20.90;;
39094;SDS011;24840;47.508;19.376;2022-11-20T04:38:56;35.40;;;20.63;;
39094;SDS011;24840;47.508;19.376;2022-11-20T04:41:24;32.73;;;21.33;;
39094;SDS011;24840;47.508;19.376;2022-11-20T04:43:57;33.97;;;20.90;;
39094;SDS011;24840;47.508;19.376;2022-11-20T04:46:27;32.50;;;20.90;;
39094;SDS011;24840;47.508;19.376;2022-11-20T04:48:54;31.97;;;20.07;;
39094;SDS011;24840;47.508;19.376;2022-11-20T04:51:21;29.80;;;19.30;;
39094;SDS011;24840;47.508;19.376;2022-11-20T04:53:47;28.10;;;19.70;;
39094;SDS011;24840;47.508;19.376;2022-11-20T04:56:13;29.93;;;20.13;;
39094;SDS011;24840;47.508;19.376;2022-11-20T04:58:39;35.07;;;21.57;;
39094;SDS011;24840;47.508;19.376;2022-11-20T05:01:06;30.67;;;20.03;;
39094;SDS011;24840;47.508;19.376;2022-11-20T05:03:38;31.10;;;20.10;;
39094;SDS011;24840;47.508;19.376;2022-11-20T05:06:05;29.17;;;19.70;;
39094;SDS011;24840;47.508;19.376;2022-11-20T05:08:31;30.50;;;19.53;;
39094;SDS011;24840;47.508;19.376;2022-11-20T05:11:05;34.67;;;21.40;;
39094;SDS011;24840;47.508;19.376;2022-11-20T05:13:33;30.77;;;20.03;;
39094;SDS011;24840;47.508;19.376;2022-11-20T05:16:02;27.23;;;18.60;;
39094;SDS011;24840;47.508;19.376;2022-11-20T05:18:34;28.57;;;19.20;;
39094;SDS011;24840;47.508;19.376;2022-11-20T05:21:01;31.67;;;18.57;;
39094;SDS011;24840;47.508;19.376;2022-11-20T05:23:27;24.43;;;18.23;;
39094;SDS011;24840;47.508;19.376;2022-11-20T05:25:55;33.43;;;22.03;;
39094;SDS011;24840;47.508;19.376;2022-11-20T05:28:22;36.67;;;22.07;;
39094;SDS011;24840;47.508;19.376;2022-11-20T05:30:49;32.57;;;20.90;;
39094;SDS011;24840;47.508;19.376;2022-11-20T05:33:16;28.90;;;19.33;;
39094;SDS011;24840;47.508;19.376;2022-11-20T05:35:42;27.40;;;19.30;;
39094;SDS011;24840;47.508;19.376;2022-11-20T05:38:08;31.33;;;19.80;;
39094;SDS011;24840;47.508;19.376;2022-11-20T05:40:35;27.43;;;18.80;;
39094;SDS011;24840;47.508;19.376;2022-11-20T05:43:01;28.87;;;19.50;;
39094;SDS011;24840;47.508;19.376;2022-11-20T05:45:27;30.40;;;20.70;;
39094;SDS011;24840;47.508;19.376;2022-11-20T05:47:53;32.30;;;21.80;;
39094;SDS011;24840;47.508;19.376;2022-11-20T05:50:22;29.50;;;20.30;;
39094;SDS011;24840;47.508;19.376;2022-11-20T05:52:48;32.43;;;21.67;;
39094;SDS011;24840;47.508;19.376;2022-11-20T05:55:14;32.90;;;20.33;;
39094;SDS011;24840;47.508;19.376;2022-11-20T05:57:40;35.17;;;23.27;;
39094;SDS011;24840;47.508;19.376;2022-11-20T06:00:06;31.27;;;21.43;;
39094;SDS011;24840;47.508;19.376;2022-11-20T06:02:34;42.37;;;24.73;;
39094;SDS011;24840;47.508;19.376;2022-11-20T06:05:01;64.53;;;34.03;;
39094;SDS011;24840;47.508;19.376;2022-11-20T06:07:27;63.47;;;36.47;;
39094;SDS011;24840;47.508;19.376;2022-11-20T06:09:53;69.87;;;37.67;;
39094;SDS011;24840;47.508;19.376;2022-11-20T06:12:19;40.37;;;24.87;;
39094;SDS011;24840;47.508;19.376;2022-11-20T06:14:45;33.37;;;23.53;;
39094;SDS011;24840;47.508;19.376;2022-11-20T06:17:11;31.00;;;22.20;;
39094;SDS011;24840;47.508;19.376;2022-11-20T06:19:37;41.17;;;25.40;;
39094;SDS011;24840;47.508;19.376;2022-11-20T06:22:03;35.70;;;23.43;;
39094;SDS011;24840;47.508;19.376;2022-11-20T06:24:29;37.90;;;24.83;;
39094;SDS011;24840;47.508;19.376;2022-11-20T06:26:55;35.37;;;24.20;;
39094;SDS011;24840;47.508;19.376;2022-11-20T06:29:21;35.53;;;23.87;;
39094;SDS011;24840;47.508;19.376;2022-11-20T06:31:47;38.10;;;25.37;;
39094;SDS011;24840;47.508;19.376;2022-11-20T06:34:13;37.23;;;23.60;;
39094;SDS011;24840;47.508;19.376;2022-11-20T06:36:39;38.87;;;23.27;;
39094;SDS011;24840;47.508;19.376;2022-11-20T06:39:05;36.67;;;23.67;;
39094;SDS011;24840;47.508;19.376;2022-11-20T06:41:36;36.70;;;23.93;;
39094;SDS011;24840;47.508;19.376;2022-11-20T06:44:04;46.07;;;23.07;;
39094;SDS011;24840;47.508;19.376;2022-11-20T06:46:34;238.98;;;35.08;;
39094;SDS011;24840;47.508;19.376;2022-11-20T06:49:00;34.50;;;23.53;;
39094;SDS011;24840;47.508;19.376;2022-11-20T06:51:26;34.30;;;22.80;;
39094;SDS011;24840;47.508;19.376;2022-11-20T06:53:52;35.80;;;21.70;;
39094;SDS011;24840;47.508;19.376;2022-11-20T06:56:19;34.23;;;23.10;;
39094;SDS011;24840;47.508;19.376;2022-11-20T06:58:45;33.57;;;22.83;;
39094;SDS011;24840;47.508;19.376;2022-11-20T07:01:12;35.60;;;24.37;;
39094;SDS011;24840;47.508;19.376;2022-11-20T07:03:39;36.63;;;22.70;;
39094;SDS011;24840;47.508;19.376;2022-11-20T07:06:06;34.73;;;22.40;;
39094;SDS011;24840;47.508;19.376;2022-11-20T07:08:33;40.57;;;25.60;;
39094;SDS011;24840;47.508;19.376;2022-11-20T07:11:00;35.80;;;23.43;;
39094;SDS011;24840;47.508;19.376;2022-11-20T07:13:31;36.77;;;24.60;;
39094;SDS011;24840;47.508;19.376;2022-11-20T07:16:01;34.73;;;22.93;;
39094;SDS011;24840;47.508;19.376;2022-11-20T07:18:29;33.43;;;22.00;;
39094;SDS011;24840;47.508;19.376;2022-11-20T07:20:55;28.70;;;21.73;;
39094;SDS011;24840;47.508;19.376;2022-11-20T07:23:21;37.47;;;22.97;;
39094;SDS011;24840;47.508;19.376;2022-11-20T07:25:47;36.50;;;23.17;;
39094;SDS011;24840;47.508;19.376;2022-11-20T07:28:13;32.97;;;23.30;;
39094;SDS011;24840;47.508;19.376;2022-11-20T07:30:39;31.87;;;22.27;;
39094;SDS011;24840;47.508;19.376;2022-11-20T07:33:05;32.67;;;22.03;;
39094;SDS011;24840;47.508;19.376;2022-11-20T07:35:31;38.70;;;24.57;;
39094;SDS011;24840;47.508;19.376;2022-11-20T07:37:57;30.33;;;20.90;;
39094;SDS011;24840;47.508;19.376;2022-11-20T07:40:23;34.83;;;23.17;;
39094;SDS011;24840;47.508;19.376;2022-11-20T07:42:50;38.43;;;23.93;;
39094;SDS011;24840;47.508;19.376;2022-11-20T07:45:18;37.73;;;23.50;;
39094;SDS011;24840;47.508;19.376;2022-11-20T07:47:44;33.20;;;23.33;;
39094;SDS011;24840;47.508;19.376;2022-11-20T07:50:10;38.80;;;25.30;;
39094;SDS011;24840;47.508;19.376;2022-11-20T07:52:37;37.20;;;23.20;;
39094;SDS011;24840;47.508;19.376;2022-11-20T07:55:03;36.73;;;24.83;;
39094;SDS011;24840;47.508;19.376;2022-11-20T07:57:30;34.17;;;22.40;;
39094;SDS011;24840;47.508;19.376;2022-11-20T07:59:57;37.30;;;24.33;;
39094;SDS011;24840;47.508;19.376;2022-11-20T08:02:23;31.93;;;22.80;;
39094;SDS011;24840;47.508;19.376;2022-11-20T08:04:51;39.93;;;23.20;;
39094;SDS011;24840;47.508;19.376;2022-11-20T08:07:18;35.87;;;23.40;;
39094;SDS011;24840;47.508;19.376;2022-11-20T08:09:44;31.87;;;19.83;;
39094;SDS011;24840;47.508;19.376;2022-11-20T08:12:17;34.23;;;22.67;;
39094;SDS011;24840;47.508;19.376;2022-11-20T08:15:04;43.33;;;21.70;;
39094;SDS011;24840;47.508;19.376;2022-11-20T08:17:32;29.33;;;20.47;;
39094;SDS011;24840;47.508;19.376;2022-11-20T08:19:59;34.73;;;21.40;;
39094;SDS011;24840;47.508;19.376;2022-11-20T08:22:26;30.20;;;21.03;;
39094;SDS011;24840;47.508;19.376;2022-11-20T08:28:06;34.93;;;23.80;;
39094;SDS011;24840;47.508;19.376;2022-11-20T08:30:34;32.58;;;23.17;;
39094;SDS011;24840;47.508;19.376;2022-11-20T08:33:06;37.57;;;24.37;;
39094;SDS011;24840;47.508;19.376;2022-11-20T08:38:06;33.60;;;21.37;;
39094;SDS011;24840;47.508;19.376;2022-11-20T08:40:34;32.50;;;21.50;;
39094;SDS011;24840;47.508;19.376;2022-11-20T08:43:01;33.80;;;21.67;;
39094;SDS011;24840;47.508;19.376;2022-11-20T08:45:28;36.93;;;23.87;;
39094;SDS011;24840;47.508;19.376;2022-11-20T08:47:59;34.43;;;22.63;;
39094;SDS011;24840;47.508;19.376;2022-11-20T08:50:28;32.67;;;24.02;;
39094;SDS011;24840;47.508;19.376;2022-11-20T08:53:01;36.43;;;22.80;;
39094;SDS011;24840;47.508;19.376;2022-11-20T08:55:30;34.63;;;21.00;;
39094;SDS011;24840;47.508;19.376;2022-11-20T08:57:57;31.57;;;22.00;;
39094;SDS011;24840;47.508;19.376;2022-11-20T09:00:23;29.33;;;19.57;;
39094;SDS011;24840;47.508;19.376;2022-11-20T09:02:49;33.50;;;21.57;;
39094;SDS011;24840;47.508;19.376;2022-11-20T09:05:15;37.77;;;23.37;;
39094;SDS011;24840;47.508;19.376;2022-11-20T09:07:41;27.73;;;20.53;;
39094;SDS011;24840;47.508;19.376;2022-11-20T09:10:07;30.20;;;20.70;;
39094;SDS011;24840;47.508;19.376;2022-11-20T09:12:33;28.73;;;21.17;;
39094;SDS011;24840;47.508;19.376;2022-11-20T09:14:59;34.47;;;22.20;;
39094;SDS011;24840;47.508;19.376;2022-11-20T09:17:25;32.87;;;23.00;;
39094;SDS011;24840;47.508;19.376;2022-11-20T09:19:51;30.47;;;20.47;;
39094;SDS011;24840;47.508;19.376;2022-11-20T09:22:17;30.33;;;20.17;;
39094;SDS011;24840;47.508;19.376;2022-11-20T09:24:43;29.53;;;20.00;;
39094;SDS011;24840;47.508;19.376;2022-11-20T09:27:09;31.80;;;20.63;;
39094;SDS011;24840;47.508;19.376;2022-11-20T11:19:13;17.83;;;12.97;;
39094;SDS011;24840;47.508;19.376;2022-11-20T11:21:45;15.27;;;11.90;;
39094;SDS011;24840;47.508;19.376;2022-11-20T11:24:26;16.00;;;11.37;;
39094;SDS011;24840;47.508;19.376;2022-11-20T11:26:57;18.77;;;12.93;;
39094;SDS011;24840;47.508;19.376;2022-11-20T11:29:29;17.93;;;12.30;;
39094;SDS011;24840;47.508;19.376;2022-11-20T11:58:55;18.43;;;13.27;;
39094;SDS011;24840;47.508;19.376;2022-11-20T12:01:33;19.33;;;13.93;;
39094;SDS011;24840;47.508;19.376;2022-11-20T12:16:34;21.90;;;15.97;;
39094;SDS011;24840;47.508;19.376;2022-11-20T12:19:01;22.27;;;15.65;;
39094;SDS011;24840;47.508;19.376;2022-11-20T12:21:54;22.43;;;15.87;;
39094;SDS011;24840;47.508;19.376;2022-11-20T12:57:53;22.30;;;16.23;;
39094;SDS011;24840;47.508;19.376;2022-11-20T13:00:24;23.47;;;16.63;;
39094;SDS011;24840;47.508;19.376;2022-11-20T13:08:04;23.73;;;16.53;;
39094;SDS011;24840;47.508;19.376;2022-11-20T13:10:46;24.47;;;17.27;;
39094;SDS011;24840;47.508;19.376;2022-11-20T13:14:00;24.23;;;15.73;;
39094;SDS011;24840;47.508;19.376;2022-11-20T13:16:11;22.13;;;15.03;;
39094;SDS011;24840;47.508;19.376;2022-11-20T13:18:54;23.87;;;16.13;;
39094;SDS011;24840;47.508;19.376;2022-11-20T13:21:21;27.80;;;17.13;;
39094;SDS011;24840;47.508;19.376;2022-11-20T13:23:48;24.77;;;17.57;;
39094;SDS011;24840;47.508;19.376;2022-11-20T13:26:20;24.63;;;17.05;;
39094;SDS011;24840;47.508;19.376;2022-11-20T13:28:59;24.80;;;17.53;;
39094;SDS011;24840;47.508;19.376;2022-11-20T13:31:34;25.97;;;18.67;;
39094;SDS011;24840;47.508;19.376;2022-11-20T13:34:03;23.07;;;16.90;;
39094;SDS011;24840;47.508;19.376;2022-11-20T13:36:31;24.63;;;17.73;;
39094;SDS011;24840;47.508;19.376;2022-11-20T13:38:59;24.17;;;17.40;;
39094;SDS011;24840;47.508;19.376;2022-11-20T13:43:57;25.75;;;18.63;;
39094;SDS011;24840;47.508;19.376;2022-11-20T13:46:43;30.50;;;20.40;;
39094;SDS011;24840;47.508;19.376;2022-11-20T13:49:16;25.50;;;17.90;;
39094;SDS011;24840;47.508;19.376;2022-11-20T13:51:46;26.67;;;19.17;;
39094;SDS011;24840;47.508;19.376;2022-11-20T13:57:02;30.07;;;20.50;;
39094;SDS011;24840;47.508;19.376;2022-11-20T14:02:13;31.97;;;19.77;;
39094;SDS011;24840;47.508;19.376;2022-11-20T14:04:48;33.70;;;20.35;;
39094;SDS011;24840;47.508;19.376;2022-11-20T14:07:17;43.92;;;23.52;;
39094;SDS011;24840;47.508;19.376;2022-11-20T14:09:49;34.10;;;21.30;;
39094;SDS011;24840;47.508;19.376;2022-11-20T14:12:18;32.78;;;22.58;;
39094;SDS011;24840;47.508;19.376;2022-11-20T14:14:52;31.73;;;21.70;;
39094;SDS011;24840;47.508;19.376;2022-11-20T14:19:53;34.20;;;21.70;;
39094;SDS011;24840;47.508;19.376;2022-11-20T14:22:27;31.73;;;21.40;;
39094;SDS011;24840;47.508;19.376;2022-11-20T14:27:37;34.47;;;21.87;;
39094;SDS011;24840;47.508;19.376;2022-11-20T14:30:06;33.47;;;21.47;;
39094;SDS011;24840;47.508;19.376;2022-11-20T14:32:42;35.13;;;21.93;;
39094;SDS011;24840;47.508;19.376;2022-11-20T14:35:13;36.40;;;23.80;;
39094;SDS011;24840;47.508;19.376;2022-11-20T14:37:44;29.30;;;21.00;;
39094;SDS011;24840;47.508;19.376;2022-11-20T14:40:30;34.17;;;22.87;;
39094;SDS011;24840;47.508;19.376;2022-11-20T14:43:00;30.00;;;20.67;;
39094;SDS011;24840;47.508;19.376;2022-11-20T14:45:26;34.83;;;21.33;;
39094;SDS011;24840;47.508;19.376;2022-11-20T14:47:53;33.57;;;21.47;;
39094;SDS011;24840;47.508;19.376;2022-11-20T14:53:00;46.90;;;30.97;;
39094;SDS011;24840;47.508;19.376;2022-11-20T14:55:27;55.63;;;38.13;;
39094;SDS011;24840;47.508;19.376;2022-11-20T14:57:57;47.43;;;30.40;;
39094;SDS011;24840;47.508;19.376;2022-11-20T15:00:28;43.17;;;30.20;;
39094;SDS011;24840;47.508;19.376;2022-11-20T15:02:55;47.83;;;34.47;;
39094;SDS011;24840;47.508;19.376;2022-11-20T15:05:22;42.00;;;27.70;;
39094;SDS011;24840;47.508;19.376;2022-11-20T15:07:51;48.70;;;32.40;;
39094;SDS011;24840;47.508;19.376;2022-11-20T15:30:47;20.70;;;13.90;;
39094;SDS011;24840;47.508;19.376;2022-11-20T15:36:15;18.63;;;12.73;;
39094;SDS011;24840;47.508;19.376;2022-11-20T15:38:41;19.53;;;13.17;;
39094;SDS011;24840;47.508;19.376;2022-11-20T15:41:07;21.07;;;13.83;;
39094;SDS011;24840;47.508;19.376;2022-11-20T15:43:33;20.97;;;13.73;;
39094;SDS011;24840;47.508;19.376;2022-11-20T15:46:00;17.33;;;12.73;;
39094;SDS011;24840;47.508;19.376;2022-11-20T15:51:57;21.43;;;14.03;;
39094;SDS011;24840;47.508;19.376;2022-11-20T15:54:22;23.30;;;15.90;;
39094;SDS011;24840;47.508;19.376;2022-11-20T15:56:49;20.07;;;14.00;;
39094;SDS011;24840;47.508;19.376;2022-11-20T15:59:17;24.00;;;14.77;;
39094;SDS011;24840;47.508;19.376;2022-11-20T16:01:43;27.47;;;18.33;;
39094;SDS011;24840;47.508;19.376;2022-11-20T16:04:12;20.93;;;14.50;;
39094;SDS011;24840;47.508;19.376;2022-11-20T16:06:40;21.30;;;15.13;;
39094;SDS011;24840;47.508;19.376;2022-11-20T16:09:06;32.77;;;22.43;;
39094;SDS011;24840;47.508;19.376;2022-11-20T16:11:32;92.03;;;55.83;;
39094;SDS011;24840;47.508;19.376;2022-11-20T16:13:58;31.10;;;19.87;;
39094;SDS011;24840;47.508;19.376;2022-11-20T16:16:43;26.63;;;18.17;;
39094;SDS011;24840;47.508;19.376;2022-11-20T16:19:10;25.07;;;16.13;;
39094;SDS011;24840;47.508;19.376;2022-11-20T16:21:36;23.37;;;13.23;;
39094;SDS011;24840;47.508;19.376;2022-11-20T16:24:05;23.63;;;15.80;;
39094;SDS011;24840;47.508;19.376;2022-11-20T16:26:33;20.87;;;13.97;;
39094;SDS011;24840;47.508;19.376;2022-11-20T16:28:59;23.50;;;14.50;;
39094;SDS011;24840;47.508;19.376;2022-11-20T16:31:27;20.23;;;14.83;;
39094;SDS011;24840;47.508;19.376;2022-11-20T16:33:54;18.33;;;12.73;;
39094;SDS011;24840;47.508;19.376;2022-11-20T16:36:23;18.90;;;13.53;;
39094;SDS011;24840;47.508;19.376;2022-11-20T16:38:54;22.20;;;14.30;;
39094;SDS011;24840;47.508;19.376;2022-11-20T16:41:22;20.47;;;14.03;;
39094;SDS011;24840;47.508;19.376;2022-11-20T16:43:49;21.17;;;13.60;;
39094;SDS011;24840;47.508;19.376;2022-11-20T16:46:20;23.30;;;14.23;;
39094;SDS011;24840;47.508;19.376;2022-11-20T16:48:57;20.80;;;14.40;;
39094;SDS011;24840;47.508;19.376;2022-11-20T16:51:36;19.33;;;12.80;;
39094;SDS011;24840;47.508;19.376;2022-11-20T16:54:02;22.80;;;13.50;;
39094;SDS011;24840;47.508;19.376;2022-11-20T16:56:32;29.37;;;14.77;;
39094;SDS011;24840;47.508;19.376;2022-11-20T16:58:59;21.40;;;15.13;;
39094;SDS011;24840;47.508;19.376;2022-11-20T17:01:26;22.33;;;14.93;;
39094;SDS011;24840;47.508;19.376;2022-11-20T17:03:53;19.13;;;14.37;;
39094;SDS011;24840;47.508;19.376;2022-11-20T17:06:27;21.83;;;14.77;;
39094;SDS011;24840;47.508;19.376;2022-11-20T17:08:55;23.17;;;14.80;;
39094;SDS011;24840;47.508;19.376;2022-11-20T17:11:21;19.73;;;13.40;;
39094;SDS011;24840;47.508;19.376;2022-11-20T17:13:48;23.77;;;15.50;;
39094;SDS011;24840;47.508;19.376;2022-11-20T17:16:15;19.80;;;14.10;;
39094;SDS011;24840;47.508;19.376;2022-11-20T17:18:42;19.07;;;13.57;;
39094;SDS011;24840;47.508;19.376;2022-11-20T17:21:08;19.20;;;12.57;;
39094;SDS011;24840;47.508;19.376;2022-11-20T17:23:36;22.27;;;15.20;;
39094;SDS011;24840;47.508;19.376;2022-11-20T17:26:04;20.67;;;13.53;;
39094;SDS011;24840;47.508;19.376;2022-11-20T17:28:30;24.37;;;16.93;;
39094;SDS011;24840;47.508;19.376;2022-11-20T17:31:02;31.20;;;22.00;;
39094;SDS011;24840;47.508;19.376;2022-11-20T17:33:30;30.20;;;21.63;;
39094;SDS011;24840;47.508;19.376;2022-11-20T17:35:57;31.23;;;20.53;;
39094;SDS011;24840;47.508;19.376;2022-11-20T17:38:23;25.60;;;18.57;;
39094;SDS011;24840;47.508;19.376;2022-11-20T17:40:49;28.53;;;19.33;;
39094;SDS011;24840;47.508;19.376;2022-11-20T17:43:15;29.63;;;19.57;;
39094;SDS011;24840;47.508;19.376;2022-11-20T17:45:41;24.13;;;16.17;;
39094;SDS011;24840;47.508;19.376;2022-11-20T17:48:07;25.03;;;15.50;;
39094;SDS011;24840;47.508;19.376;2022-11-20T17:50:33;22.63;;;15.10;;
39094;SDS011;24840;47.508;19.376;2022-11-20T17:52:59;31.50;;;19.97;;
39094;SDS011;24840;47.508;19.376;2022-11-20T17:55:24;27.63;;;19.47;;
39094;SDS011;24840;47.508;19.376;2022-11-20T17:57:50;27.80;;;18.43;;
39094;SDS011;24840;47.508;19.376;2022-11-20T18:00:20;70.67;;;43.13;;
39094;SDS011;24840;47.508;19.376;2022-11-20T18:02:47;69.60;;;43.67;;
39094;SDS011;24840;47.508;19.376;2022-11-20T18:05:13;58.30;;;37.60;;
39094;SDS011;24840;47.508;19.376;2022-11-20T18:07:39;31.30;;;20.77;;
39094;SDS011;24840;47.508;19.376;2022-11-20T18:10:06;26.47;;;17.47;;
39094;SDS011;24840;47.508;19.376;2022-11-20T18:12:32;24.30;;;16.90;;
39094;SDS011;24840;47.508;19.376;2022-11-20T18:14:58;26.93;;;17.77;;
39094;SDS011;24840;47.508;19.376;2022-11-20T18:17:24;23.57;;;15.40;;
39094;SDS011;24840;47.508;19.376;2022-11-20T18:19:50;27.40;;;16.07;;